IW2MVS-3 Weather Reports


Display with metric or nautical units.
time (UTC)temp
F
wind
direction
speed
MPH
gust
MPH
rain 1hr
in
rain 24hr
in
rain mn
in
humidity
%
barometer
mb
20220629224511 71 0 0.0 0.0 0.00 0.00 0.00 70 1012.5
20220629223012 72 0 0.0 0.0 0.00 0.00 0.00 69 1012.4
20220629221511 72 0 0.0 0.0 0.00 0.00 0.00 64 1012.5
20220629220017 74 181 0.0 1.0 0.00 0.00 0.00 62 1012.4
20220629214512 74 0 0.0 0.0 0.00 0.00 0.00 61 1012.5
20220629213012 75 0 0.0 0.0 0.00 0.00 0.00 60 1012.4
20220629211512 76 0 0.0 0.0 0.00 0.00 0.00 59 1012.4
20220629210012 76 1 0.0 1.0 0.00 0.00 0.00 57 1012.2
20220629204512 76 221 1.0 2.0 0.00 0.00 0.00 56 1012.1
20220629203012 77 165 0.0 3.0 0.00 0.00 0.00 55 1011.9
20220629201512 78 0 0.0 0.0 0.00 0.00 0.00 55 1011.6
20220629200012 78 0 0.0 0.0 0.00 0.00 0.00 54 1011.6
20220629194512 79 189 1.0 2.0 0.00 0.00 0.00 53 1011.3
20220629193012 80 188 2.0 4.0 0.00 0.00 0.00 51 1011.1
20220629191512 81 175 3.0 4.0 0.00 0.00 0.00 49 1011.0
20220629190012 82 174 0.0 4.0 0.00 0.00 0.00 41 1010.9
20220629184512 83 0 0.0 0.0 0.00 0.00 0.00 40 1010.7
20220629183013 83 0 0.0 0.0 0.00 0.00 0.00 40 1010.6
20220629181512 84 152 2.0 3.0 0.00 0.00 0.00 39 1010.5
20220629180012 85 181 3.0 4.0 0.00 0.00 0.00 38 1010.6
20220629174512 85 172 3.0 5.0 0.00 0.00 0.00 38 1010.6
20220629173012 86 158 4.0 5.0 0.00 0.00 0.00 38 1010.5
20220629171512 86 177 4.0 6.0 0.00 0.00 0.00 37 1010.4
20220629170011 86 145 5.0 6.0 0.00 0.00 0.00 37 1010.5
20220629164512 87 145 5.0 8.0 0.00 0.00 0.00 36 1010.5
20220629163015 87 174 6.0 10.0 0.00 0.00 0.00 35 1010.5
20220629161512 88 187 4.0 7.0 0.00 0.00 0.00 35 1010.5
20220629160012 88 173 4.0 4.0 0.00 0.00 0.00 35 1010.6
20220629154512 88 185 4.0 5.0 0.00 0.00 0.00 35 1010.6
20220629153012 88 145 5.0 8.0 0.00 0.00 0.00 36 1010.7
20220629151512 88 179 5.0 10.0 0.00 0.00 0.00 36 1010.6
20220629150013 88 170 6.0 10.0 0.00 0.00 0.00 35 1010.8
20220629144512 88 173 5.0 7.0 0.00 0.00 0.00 35 1010.8
20220629143012 87 168 6.0 8.0 0.00 0.00 0.00 37 1010.9
20220629141512 87 192 7.0 8.0 0.00 0.00 0.00 38 1010.8
20220629140012 87 182 5.0 8.0 0.00 0.00 0.00 39 1010.8
20220629134512 87 171 5.0 8.0 0.00 0.00 0.00 40 1010.9
20220629133013 86 181 7.0 9.0 0.00 0.00 0.00 41 1011.0
20220629131513 87 198 7.0 9.0 0.00 0.00 0.00 39 1010.9
20220629130013 87 189 6.0 8.0 0.00 0.00 0.00 40 1010.8
20220629124513 87 172 6.0 8.0 0.00 0.00 0.00 38 1010.9
20220629123012 87 160 5.0 8.0 0.00 0.00 0.00 37 1010.8
20220629121512 86 174 6.0 8.0 0.00 0.00 0.00 36 1010.9
20220629120013 86 189 6.0 8.0 0.00 0.00 0.00 37 1010.9
20220629114513 86 209 5.0 8.0 0.00 0.00 0.00 37 1011.0
20220629113013 86 22 3.0 4.0 0.00 0.00 0.00 40 1011.1
20220629111514 85 249 2.0 5.0 0.00 0.01 0.00 40 1011.2
20220629110014 85 31 3.0 4.0 0.00 0.04 0.00 41 1011.3
20220629104514 84 193 3.0 5.0 0.00 0.05 0.00 41 1011.5
20220629103014 83 230 4.0 8.0 0.00 0.05 0.00 43 1011.6
20220629101514 83 184 5.0 7.0 0.00 0.05 0.00 43 1011.7
20220629100014 82 174 4.0 7.0 0.00 0.06 0.00 43 1011.7
20220629094513 82 196 5.0 8.0 0.00 0.07 0.00 46 1011.8
20220629093014 81 203 5.0 6.0 0.00 0.07 0.00 52 1011.8
20220629091514 81 245 5.0 7.0 0.00 0.07 0.00 51 1011.8
20220629090014 80 204 3.0 4.0 0.00 0.07 0.00 53 1011.8
20220629084514 79 237 5.0 6.0 0.00 0.07 0.00 52 1011.9
20220629083015 78 224 5.0 7.0 0.00 0.07 0.00 53 1011.8
20220629081514 78 225 5.0 8.0 0.00 0.07 0.00 53 1011.9
20220629080014 78 227 4.0 6.0 0.00 0.07 0.00 53 1011.8
20220629074514 78 156 5.0 7.0 0.00 0.07 0.00 53 1011.9
20220629073014 77 349 3.0 6.0 0.00 0.07 0.00 57 1011.9
20220629071514 76 1 3.0 4.0 0.00 0.07 0.00 59 1011.9
20220629070014 75 222 4.0 6.0 0.00 0.07 0.00 60 1012.0
20220629064514 75 203 3.0 4.0 0.00 0.07 0.00 61 1011.8
20220629063014 74 20 2.0 4.0 0.00 0.07 0.00 62 1011.7
20220629061514 73 351 4.0 8.0 0.00 0.07 0.00 62 1011.9
20220629060014 72 346 6.0 8.0 0.00 0.07 0.00 66 1011.9
20220629054514 71 347 6.0 8.0 0.00 0.07 0.00 70 1011.8
20220629053014 70 25 3.0 6.0 0.00 0.07 0.00 72 1012.0
20220629051514 69 341 7.0 10.0 0.00 0.07 0.00 72 1012.0
20220629050014 68 2 4.0 6.0 0.00 0.07 0.00 75 1012.1
20220629044514 67 342 5.0 11.0 0.00 0.07 0.00 77 1012.1
20220629043014 66 300 2.0 3.0 0.00 0.07 0.00 77 1012.2
20220629041513 66 74 1.0 3.0 0.00 0.07 0.00 76 1012.3
20220629040014 67 85 1.0 2.0 0.00 0.07 0.00 75 1012.3
20220629034513 67 359 3.0 4.0 0.00 0.07 0.00 75 1012.3
20220629033013 67 42 2.0 3.0 0.00 0.07 0.00 74 1012.3
20220629031513 68 44 4.0 7.0 0.00 0.07 0.00 74 1012.5
20220629030014 67 12 4.0 7.0 0.00 0.07 0.00 75 1012.5
20220629024516 67 79 1.0 2.0 0.00 0.07 0.00 75 1012.6
20220629023014 67 341 3.0 4.0 0.00 0.07 0.00 75 1012.7
20220629021513 67 54 1.0 2.0 0.00 0.07 0.00 75 1012.8
20220629020014 67 29 2.0 3.0 0.00 0.07 0.00 74 1013.0
20220629014514 67 350 4.0 5.0 0.00 0.07 0.00 74 1013.2
20220629013014 68 351 4.0 5.0 0.00 0.07 0.00 74 1013.3
20220629011513 68 50 1.0 3.0 0.00 0.07 0.00 74 1013.6
20220629010014 68 328 2.0 4.0 0.00 0.07 0.00 74 1013.5
20220629004516 68 322 4.0 5.0 0.00 0.07 0.00 74 1013.7
20220629003015 68 6 3.0 4.0 0.00 0.07 0.00 74 1013.8
20220629001516 68 1 4.0 6.0 0.00 0.07 0.00 74 1013.9
20220629000016 68 342 5.0 6.0 0.00 0.07 0.00 75 1014.1
20220628234518 68 13 3.0 6.0 0.00 0.07 0.00 75 1014.1
20220628233017 68 357 1.0 5.0 0.00 0.07 0.00 74 1014.4
20220628231516 68 65 0.0 2.0 0.00 0.07 0.00 74 1014.4
20220628230016 68 61 1.0 2.0 0.00 0.07 0.00 73 1014.4